sensor_id;sensor_type;location;lat;lon;timestamp;pressure;altitude;pressure_sealevel;temperature;humidity
45467;BME280;31212;49.734;8.490;2023-03-01T00:01:15;101385.94;;;-2.12;71.66
45467;BME280;31212;49.734;8.490;2023-03-01T00:03:42;101379.72;;;-2.15;71.99
45467;BME280;31212;49.734;8.490;2023-03-01T00:06:08;101390.38;;;-2.21;72.33
45467;BME280;31212;49.734;8.490;2023-03-01T00:08:35;101396.22;;;-2.22;72.17
45467;BME280;31212;49.734;8.490;2023-03-01T00:11:05;101399.13;;;-2.29;72.06
45467;BME280;31212;49.734;8.490;2023-03-01T00:13:32;101415.34;;;-2.27;72.05
45467;BME280;31212;49.734;8.490;2023-03-01T00:16:02;101422.78;;;-2.30;72.15
45467;BME280;31212;49.734;8.490;2023-03-01T00:18:28;101420.66;;;-2.24;73.00
45467;BME280;31212;49.734;8.490;2023-03-01T00:20:55;101411.69;;;-2.31;72.87
45467;BME280;31212;49.734;8.490;2023-03-01T00:23:22;101422.44;;;-2.23;72.55
45467;BME280;31212;49.734;8.490;2023-03-01T00:25:50;101427.50;;;-2.23;72.48
45467;BME280;31212;49.734;8.490;2023-03-01T00:28:18;101424.88;;;-2.25;73.07
45467;BME280;31212;49.734;8.490;2023-03-01T00:30:45;101423.53;;;-2.31;72.93
45467;BME280;31212;49.734;8.490;2023-03-01T00:33:12;101421.09;;;-2.30;73.02
45467;BME280;31212;49.734;8.490;2023-03-01T00:35:38;101409.41;;;-2.28;73.14
45467;BME280;31212;49.734;8.490;2023-03-01T00:38:05;101408.50;;;-2.28;72.77
45467;BME280;31212;49.734;8.490;2023-03-01T00:40:34;101415.25;;;-2.29;72.29
45467;BME280;31212;49.734;8.490;2023-03-01T00:43:02;101413.16;;;-2.34;72.87
45467;BME280;31212;49.734;8.490;2023-03-01T00:45:30;101418.34;;;-2.33;72.93
45467;BME280;31212;49.734;8.490;2023-03-01T00:47:57;101414.69;;;-2.37;72.88
45467;BME280;31212;49.734;8.490;2023-03-01T00:50:24;101417.47;;;-2.33;73.13
45467;BME280;31212;49.734;8.490;2023-03-01T00:52:52;101407.50;;;-2.30;73.36
45467;BME280;31212;49.734;8.490;2023-03-01T00:55:18;101408.38;;;-2.30;72.97
45467;BME280;31212;49.734;8.490;2023-03-01T00:57:45;101397.56;;;-2.27;73.09
45467;BME280;31212;49.734;8.490;2023-03-01T01:00:12;101393.91;;;-2.31;72.58
45467;BME280;31212;49.734;8.490;2023-03-01T01:02:40;101388.81;;;-2.31;73.37
45467;BME280;31212;49.734;8.490;2023-03-01T01:05:07;101381.19;;;-2.31;73.40
45467;BME280;31212;49.734;8.490;2023-03-01T01:07:34;101378.78;;;-2.29;73.59
45467;BME280;31212;49.734;8.490;2023-03-01T01:10:01;101360.50;;;-2.24;73.29
45467;BME280;31212;49.734;8.490;2023-03-01T01:12:27;101352.22;;;-2.21;73.13
45467;BME280;31212;49.734;8.490;2023-03-01T01:14:54;101340.72;;;-2.28;72.84
45467;BME280;31212;49.734;8.490;2023-03-01T01:17:20;101338.19;;;-2.28;73.09
45467;BME280;31212;49.734;8.490;2023-03-01T01:19:48;101344.69;;;-2.31;72.85
45467;BME280;31212;49.734;8.490;2023-03-01T01:22:15;101330.88;;;-2.35;73.28
45467;BME280;31212;49.734;8.490;2023-03-01T01:24:42;101342.81;;;-2.34;73.45
45467;BME280;31212;49.734;8.490;2023-03-01T01:27:09;101343.72;;;-2.33;73.49
45467;BME280;31212;49.734;8.490;2023-03-01T01:29:35;101338.84;;;-2.30;73.07
45467;BME280;31212;49.734;8.490;2023-03-01T01:32:03;101336.19;;;-2.32;73.30
45467;BME280;31212;49.734;8.490;2023-03-01T01:34:30;101336.97;;;-2.33;73.60
45467;BME280;31212;49.734;8.490;2023-03-01T01:36:58;101333.09;;;-2.28;73.21
45467;BME280;31212;49.734;8.490;2023-03-01T01:39:28;101337.06;;;-2.31;72.90
45467;BME280;31212;49.734;8.490;2023-03-01T01:41:54;101331.41;;;-2.27;73.49
45467;BME280;31212;49.734;8.490;2023-03-01T01:44:22;101324.00;;;-2.24;73.30
45467;BME280;31212;49.734;8.490;2023-03-01T01:46:51;101323.78;;;-2.27;73.34
45467;BME280;31212;49.734;8.490;2023-03-01T01:49:23;101327.78;;;-2.31;73.46
45467;BME280;31212;49.734;8.490;2023-03-01T01:51:58;101333.31;;;-2.37;73.29
45467;BME280;31212;49.734;8.490;2023-03-01T01:54:30;101344.41;;;-2.36;73.72
45467;BME280;31212;49.734;8.490;2023-03-01T01:57:02;101328.13;;;-2.38;74.03
45467;BME280;31212;49.734;8.490;2023-03-01T01:59:30;101340.84;;;-2.38;74.29
45467;BME280;31212;49.734;8.490;2023-03-01T02:01:59;101340.94;;;-2.37;73.92
45467;BME280;31212;49.734;8.490;2023-03-01T02:04:28;101351.78;;;-2.39;74.01
45467;BME280;31212;49.734;8.490;2023-03-01T02:06:59;101350.25;;;-2.37;74.28
45467;BME280;31212;49.734;8.490;2023-03-01T02:09:27;101340.84;;;-2.38;74.31
45467;BME280;31212;49.734;8.490;2023-03-01T02:11:54;101344.16;;;-2.39;74.34
45467;BME280;31212;49.734;8.490;2023-03-01T02:14:21;101350.03;;;-2.40;74.47
45467;BME280;31212;49.734;8.490;2023-03-01T02:16:47;101354.31;;;-2.39;74.04
45467;BME280;31212;49.734;8.490;2023-03-01T02:19:27;101361.41;;;-2.35;75.16
45467;BME280;31212;49.734;8.490;2023-03-01T02:22:04;101362.50;;;-2.31;74.43
45467;BME280;31212;49.734;8.490;2023-03-01T02:24:40;101350.44;;;-2.34;74.71
45467;BME280;31212;49.734;8.490;2023-03-01T02:27:10;101356.22;;;-2.37;74.54
45467;BME280;31212;49.734;8.490;2023-03-01T02:29:39;101357.09;;;-2.36;75.12
45467;BME280;31212;49.734;8.490;2023-03-01T02:32:08;101359.66;;;-2.36;74.81
45467;BME280;31212;49.734;8.490;2023-03-01T02:34:35;101351.47;;;-2.32;74.61
45467;BME280;31212;49.734;8.490;2023-03-01T02:37:05;101345.25;;;-2.35;74.80
45467;BME280;31212;49.734;8.490;2023-03-01T02:39:39;101351.66;;;-2.29;74.31
45467;BME280;31212;49.734;8.490;2023-03-01T02:42:11;101335.63;;;-2.28;74.95
45467;BME280;31212;49.734;8.490;2023-03-01T02:44:39;101333.75;;;-2.30;74.65
45467;BME280;31212;49.734;8.490;2023-03-01T02:47:06;101329.75;;;-2.27;74.71
45467;BME280;31212;49.734;8.490;2023-03-01T02:49:35;101326.69;;;-2.23;74.68
45467;BME280;31212;49.734;8.490;2023-03-01T02:52:16;101315.94;;;-2.18;74.39
45467;BME280;31212;49.734;8.490;2023-03-01T02:54:49;101317.38;;;-2.22;74.83
45467;BME280;31212;49.734;8.490;2023-03-01T02:57:18;101316.91;;;-2.16;74.44
45467;BME280;31212;49.734;8.490;2023-03-01T02:59:47;101309.94;;;-2.19;74.62
45467;BME280;31212;49.734;8.490;2023-03-01T03:02:19;101307.88;;;-2.25;73.99
45467;BME280;31212;49.734;8.490;2023-03-01T03:05:08;101301.66;;;-2.28;74.41
45467;BME280;31212;49.734;8.490;2023-03-01T03:07:37;101304.88;;;-2.31;74.29
45467;BME280;31212;49.734;8.490;2023-03-01T03:10:06;101297.38;;;-2.29;74.72
45467;BME280;31212;49.734;8.490;2023-03-01T03:12:34;101306.09;;;-2.26;75.02
45467;BME280;31212;49.734;8.490;2023-03-01T03:15:03;101291.50;;;-2.28;74.91
45467;BME280;31212;49.734;8.490;2023-03-01T03:17:33;101290.94;;;-2.24;74.67
45467;BME280;31212;49.734;8.490;2023-03-01T03:20:00;101294.38;;;-2.24;74.38
45467;BME280;31212;49.734;8.490;2023-03-01T03:22:28;101297.69;;;-2.25;74.92
45467;BME280;31212;49.734;8.490;2023-03-01T03:24:54;101292.72;;;-2.23;74.92
45467;BME280;31212;49.734;8.490;2023-03-01T03:27:21;101287.97;;;-2.30;74.77
45467;BME280;31212;49.734;8.490;2023-03-01T03:29:47;101292.16;;;-2.31;74.97
45467;BME280;31212;49.734;8.490;2023-03-01T03:32:15;101295.63;;;-2.30;74.66
45467;BME280;31212;49.734;8.490;2023-03-01T03:34:42;101299.13;;;-2.28;74.91
45467;BME280;31212;49.734;8.490;2023-03-01T03:37:09;101292.97;;;-2.32;74.85
45467;BME280;31212;49.734;8.490;2023-03-01T03:39:55;101292.16;;;-2.31;75.39
45467;BME280;31212;49.734;8.490;2023-03-01T03:42:22;101288.66;;;-2.33;75.04
45467;BME280;31212;49.734;8.490;2023-03-01T03:44:48;101289.19;;;-2.25;75.39
45467;BME280;31212;49.734;8.490;2023-03-01T03:47:16;101275.81;;;-2.23;75.23
45467;BME280;31212;49.734;8.490;2023-03-01T03:49:43;101271.38;;;-2.25;74.80
45467;BME280;31212;49.734;8.490;2023-03-01T03:52:09;101278.13;;;-2.26;75.02
45467;BME280;31212;49.734;8.490;2023-03-01T03:54:39;101273.59;;;-2.30;74.72
45467;BME280;31212;49.734;8.490;2023-03-01T03:57:05;101275.47;;;-2.27;75.29
45467;BME280;31212;49.734;8.490;2023-03-01T03:59:32;101269.19;;;-2.32;75.01
45467;BME280;31212;49.734;8.490;2023-03-01T04:01:58;101270.47;;;-2.26;75.30
45467;BME280;31212;49.734;8.490;2023-03-01T04:04:26;101273.94;;;-2.25;74.86
45467;BME280;31212;49.734;8.490;2023-03-01T04:06:53;101272.56;;;-2.20;75.36
45467;BME280;31212;49.734;8.490;2023-03-01T04:09:19;101270.81;;;-2.21;74.89
45467;BME280;31212;49.734;8.490;2023-03-01T04:11:46;101273.09;;;-2.12;75.02
45467;BME280;31212;49.734;8.490;2023-03-01T04:14:12;101263.69;;;-2.13;74.57
45467;BME280;31212;49.734;8.490;2023-03-01T04:16:39;101261.94;;;-2.14;74.61
45467;BME280;31212;49.734;8.490;2023-03-01T04:19:06;101253.88;;;-2.21;74.83
45467;BME280;31212;49.734;8.490;2023-03-01T04:21:36;101256.75;;;-2.16;74.87
45467;BME280;31212;49.734;8.490;2023-03-01T04:24:03;101260.94;;;-2.16;75.26
45467;BME280;31212;49.734;8.490;2023-03-01T04:29:00;101264.50;;;-2.14;75.22
45467;BME280;31212;49.734;8.490;2023-03-01T04:31:27;101266.47;;;-2.10;75.14
45467;BME280;31212;49.734;8.490;2023-03-01T04:33:54;101265.66;;;-2.09;74.99
45467;BME280;31212;49.734;8.490;2023-03-01T04:36:24;101256.28;;;-2.10;75.31
45467;BME280;31212;49.734;8.490;2023-03-01T04:38:52;101260.56;;;-2.09;75.04
45467;BME280;31212;49.734;8.490;2023-03-01T04:41:20;101261.00;;;-2.03;74.95
45467;BME280;31212;49.734;8.490;2023-03-01T04:43:47;101255.03;;;-2.04;75.24
45467;BME280;31212;49.734;8.490;2023-03-01T04:46:17;101255.44;;;-1.97;74.98
45467;BME280;31212;49.734;8.490;2023-03-01T04:48:46;101259.75;;;-1.96;74.70
45467;BME280;31212;49.734;8.490;2023-03-01T04:51:13;101249.88;;;-1.92;74.50
45467;BME280;31212;49.734;8.490;2023-03-01T04:53:41;101250.78;;;-1.91;74.35
45467;BME280;31212;49.734;8.490;2023-03-01T04:56:09;101253.50;;;-1.88;74.69
45467;BME280;31212;49.734;8.490;2023-03-01T04:58:36;101252.34;;;-1.80;74.50
45467;BME280;31212;49.734;8.490;2023-03-01T05:01:08;101242.41;;;-1.77;74.05
45467;BME280;31212;49.734;8.490;2023-03-01T05:03:41;101229.34;;;-1.81;73.91
45467;BME280;31212;49.734;8.490;2023-03-01T05:06:08;101230.84;;;-1.72;73.64
45467;BME280;31212;49.734;8.490;2023-03-01T05:08:36;101223.19;;;-1.72;74.12
45467;BME280;31212;49.734;8.490;2023-03-01T05:11:03;101215.06;;;-1.79;73.67
45467;BME280;31212;49.734;8.490;2023-03-01T05:13:31;101205.97;;;-1.76;73.50
45467;BME280;31212;49.734;8.490;2023-03-01T05:16:00;101196.88;;;-1.72;73.55
45467;BME280;31212;49.734;8.490;2023-03-01T05:18:31;101198.06;;;-1.67;73.44
45467;BME280;31212;49.734;8.490;2023-03-01T05:21:02;101191.28;;;-1.66;73.05
45467;BME280;31212;49.734;8.490;2023-03-01T05:23:29;101185.22;;;-1.68;73.23
45467;BME280;31212;49.734;8.490;2023-03-01T05:25:57;101177.00;;;-1.64;72.88
45467;BME280;31212;49.734;8.490;2023-03-01T05:28:25;101175.25;;;-1.52;73.05
45467;BME280;31212;49.734;8.490;2023-03-01T05:30:53;101162.72;;;-1.49;73.12
45467;BME280;31212;49.734;8.490;2023-03-01T05:33:19;101149.00;;;-1.51;72.93
45467;BME280;31212;49.734;8.490;2023-03-01T05:35:47;101148.31;;;-1.48;72.65
45467;BME280;31212;49.734;8.490;2023-03-01T05:38:15;101146.47;;;-1.51;72.71
45467;BME280;31212;49.734;8.490;2023-03-01T05:40:43;101143.59;;;-1.42;72.57
45467;BME280;31212;49.734;8.490;2023-03-01T05:43:11;101137.06;;;-1.39;72.50
45467;BME280;31212;49.734;8.490;2023-03-01T05:45:38;101131.75;;;-1.42;72.54
45467;BME280;31212;49.734;8.490;2023-03-01T05:48:08;101125.59;;;-1.45;72.73
45467;BME280;31212;49.734;8.490;2023-03-01T05:50:38;101134.41;;;-1.40;72.53
45467;BME280;31212;49.734;8.490;2023-03-01T05:53:06;101131.97;;;-1.39;72.28
45467;BME280;31212;49.734;8.490;2023-03-01T05:55:34;101135.69;;;-1.33;71.92
45467;BME280;31212;49.734;8.490;2023-03-01T05:58:02;101126.19;;;-1.36;71.50
45467;BME280;31212;49.734;8.490;2023-03-01T06:00:29;101129.09;;;-1.30;71.62
45467;BME280;31212;49.734;8.490;2023-03-01T06:02:57;101118.03;;;-1.30;71.48
45467;BME280;31212;49.734;8.490;2023-03-01T06:05:26;101114.63;;;-1.31;72.06
45467;BME280;31212;49.734;8.490;2023-03-01T06:07:53;101105.28;;;-1.30;71.95
45467;BME280;31212;49.734;8.490;2023-03-01T06:10:21;101115.56;;;-1.29;71.87
45467;BME280;31212;49.734;8.490;2023-03-01T06:12:48;101108.31;;;-1.23;71.69
45467;BME280;31212;49.734;8.490;2023-03-01T06:15:16;101104.88;;;-1.23;71.74
45467;BME280;31212;49.734;8.490;2023-03-01T06:17:44;101106.66;;;-1.22;71.77
45467;BME280;31212;49.734;8.490;2023-03-01T06:20:13;101113.59;;;-1.20;71.87
45467;BME280;31212;49.734;8.490;2023-03-01T06:22:42;101112.00;;;-1.17;71.56
45467;BME280;31212;49.734;8.490;2023-03-01T06:25:09;101107.63;;;-1.20;71.57
45467;BME280;31212;49.734;8.490;2023-03-01T06:27:35;101108.59;;;-1.18;71.33
45467;BME280;31212;49.734;8.490;2023-03-01T06:30:03;101105.84;;;-1.08;71.54
45467;BME280;31212;49.734;8.490;2023-03-01T06:32:29;101096.69;;;-1.04;71.26
45467;BME280;31212;49.734;8.490;2023-03-01T06:34:56;101090.22;;;-0.99;71.05
45467;BME280;31212;49.734;8.490;2023-03-01T06:37:23;101080.59;;;-0.90;71.10
45467;BME280;31212;49.734;8.490;2023-03-01T06:39:51;101069.94;;;-0.82;70.69
45467;BME280;31212;49.734;8.490;2023-03-01T06:42:18;101052.22;;;-0.81;70.47
45467;BME280;31212;49.734;8.490;2023-03-01T06:44:44;101057.53;;;-0.63;70.24
45467;BME280;31212;49.734;8.490;2023-03-01T06:47:11;101054.28;;;-0.45;70.12
45467;BME280;31212;49.734;8.490;2023-03-01T06:49:37;101050.59;;;-0.36;69.86
45467;BME280;31212;49.734;8.490;2023-03-01T06:52:04;101022.00;;;-0.30;69.25
45467;BME280;31212;49.734;8.490;2023-03-01T06:54:30;101010.66;;;-0.20;69.20
45467;BME280;31212;49.734;8.490;2023-03-01T06:56:58;101015.38;;;-0.11;68.98
45467;BME280;31212;49.734;8.490;2023-03-01T06:59:24;101004.81;;;-0.03;68.63
45467;BME280;31212;49.734;8.490;2023-03-01T07:01:51;100986.50;;;0.05;68.31
45467;BME280;31212;49.734;8.490;2023-03-01T07:04:17;100974.88;;;0.26;68.13
45467;BME280;31212;49.734;8.490;2023-03-01T07:06:44;100940.31;;;0.00;67.87
45467;BME280;31212;49.734;8.490;2023-03-01T07:09:10;100966.09;;;0.21;67.97
45467;BME280;31212;49.734;8.490;2023-03-01T07:11:37;100951.81;;;0.25;67.77
45467;BME280;31212;49.734;8.490;2023-03-01T07:14:05;100930.28;;;0.36;67.43
45467;BME280;31212;49.734;8.490;2023-03-01T07:16:32;100910.47;;;0.32;67.20
45467;BME280;31212;49.734;8.490;2023-03-01T07:18:58;100907.47;;;0.39;66.93
45467;BME280;31212;49.734;8.490;2023-03-01T07:21:25;100908.25;;;0.55;66.99
45467;BME280;31212;49.734;8.490;2023-03-01T07:23:51;100906.13;;;0.97;66.46
45467;BME280;31212;49.734;8.490;2023-03-01T07:26:17;100881.78;;;1.95;65.22
45467;BME280;31212;49.734;8.490;2023-03-01T07:28:44;100785.94;;;2.91;62.81
45467;BME280;31212;49.734;8.490;2023-03-01T07:31:12;100633.81;;;3.87;59.48
45467;BME280;31212;49.734;8.490;2023-03-01T07:33:38;100538.16;;;3.69;58.31
45467;BME280;31212;49.734;8.490;2023-03-01T07:36:05;100478.16;;;4.81;56.22
45467;BME280;31212;49.734;8.490;2023-03-01T07:38:32;100376.56;;;4.98;54.42
45467;BME280;31212;49.734;8.490;2023-03-01T07:41:01;100350.59;;;4.89;54.12
45467;BME280;31212;49.734;8.490;2023-03-01T07:43:27;100266.44;;;5.60;52.49
45467;BME280;31212;49.734;8.490;2023-03-01T07:45:54;100233.06;;;5.64;51.86
45467;BME280;31212;49.734;8.490;2023-03-01T07:48:22;100191.09;;;6.14;50.33
45467;BME280;31212;49.734;8.490;2023-03-01T07:50:48;100262.25;;;6.55;51.25
45467;BME280;31212;49.734;8.490;2023-03-01T07:53:15;100094.28;;;6.32;49.30
45467;BME280;31212;49.734;8.490;2023-03-01T07:55:41;100121.53;;;7.43;48.27
45467;BME280;31212;49.734;8.490;2023-03-01T07:58:08;100109.25;;;8.08;47.30
45467;BME280;31212;49.734;8.490;2023-03-01T08:00:34;100018.25;;;7.46;47.15
45467;BME280;31212;49.734;8.490;2023-03-01T08:03:01;100054.88;;;7.97;46.59
45467;BME280;31212;49.734;8.490;2023-03-01T08:05:29;100063.16;;;8.71;45.69
45467;BME280;31212;49.734;8.490;2023-03-01T08:07:56;99932.97;;;9.09;44.03
45467;BME280;31212;49.734;8.490;2023-03-01T08:10:22;99894.13;;;9.47;42.95
45467;BME280;31212;49.734;8.490;2023-03-01T08:12:51;99874.13;;;8.44;43.79
45467;BME280;31212;49.734;8.490;2023-03-01T08:15:17;99902.50;;;8.25;44.10
45467;BME280;31212;49.734;8.490;2023-03-01T08:17:44;99883.75;;;8.86;43.05
45467;BME280;31212;49.734;8.490;2023-03-01T08:20:11;99887.22;;;9.64;42.74
45467;BME280;31212;49.734;8.490;2023-03-01T08:22:39;99920.91;;;9.33;42.71
45467;BME280;31212;49.734;8.490;2023-03-01T08:25:06;99845.81;;;9.18;42.54
45467;BME280;31212;49.734;8.490;2023-03-01T08:27:32;99863.91;;;9.27;41.91
45467;BME280;31212;49.734;8.490;2023-03-01T08:29:59;99827.66;;;8.68;42.41
45467;BME280;31212;49.734;8.490;2023-03-01T08:32:25;99780.13;;;8.31;41.89
45467;BME280;31212;49.734;8.490;2023-03-01T08:34:52;99938.19;;;9.59;42.16
45467;BME280;31212;49.734;8.490;2023-03-01T08:37:18;99825.94;;;9.01;41.86
45467;BME280;31212;49.734;8.490;2023-03-01T08:39:46;99794.84;;;8.47;42.43
45467;BME280;31212;49.734;8.490;2023-03-01T08:42:12;99899.22;;;10.04;41.18
45467;BME280;31212;49.734;8.490;2023-03-01T08:44:39;99855.72;;;10.69;40.49
45467;BME280;31212;49.734;8.490;2023-03-01T08:47:05;99795.69;;;11.06;39.35
45467;BME280;31212;49.734;8.490;2023-03-01T08:49:32;99707.47;;;9.73;39.64
45467;BME280;31212;49.734;8.490;2023-03-01T08:51:58;99767.97;;;9.66;40.60
45467;BME280;31212;49.734;8.490;2023-03-01T08:54:25;99752.44;;;9.66;40.54
45467;BME280;31212;49.734;8.490;2023-03-01T08:56:53;99726.31;;;10.07;39.34
45467;BME280;31212;49.734;8.490;2023-03-01T08:59:19;99704.09;;;9.54;40.08
45467;BME280;31212;49.734;8.490;2023-03-01T09:01:46;99717.78;;;9.87;40.03
45467;BME280;31212;49.734;8.490;2023-03-01T09:04:13;99850.69;;;10.38;40.82
45467;BME280;31212;49.734;8.490;2023-03-01T09:06:40;99852.19;;;10.81;40.37
45467;BME280;31212;49.734;8.490;2023-03-01T09:09:12;99808.25;;;11.53;39.09
45467;BME280;31212;49.734;8.490;2023-03-01T09:11:39;99703.06;;;11.04;38.62
45467;BME280;31212;49.734;8.490;2023-03-01T09:14:07;99599.88;;;8.82;39.78
45467;BME280;31212;49.734;8.490;2023-03-01T09:16:34;99684.69;;;10.26;38.94
45467;BME280;31212;49.734;8.490;2023-03-01T09:19:02;99621.50;;;8.25;40.78
45467;BME280;31212;49.734;8.490;2023-03-01T09:21:29;99730.19;;;8.64;40.82
45467;BME280;31212;49.734;8.490;2023-03-01T09:23:56;99677.56;;;8.56;40.35
45467;BME280;31212;49.734;8.490;2023-03-01T09:26:24;99800.00;;;9.46;40.66
45467;BME280;31212;49.734;8.490;2023-03-01T09:28:52;99801.72;;;9.38;40.74
45467;BME280;31212;49.734;8.490;2023-03-01T09:31:21;99698.19;;;8.09;40.97
45467;BME280;31212;49.734;8.490;2023-03-01T09:33:49;99768.94;;;8.42;41.87
45467;BME280;31212;49.734;8.490;2023-03-01T09:36:18;99739.41;;;7.63;42.25
45467;BME280;31212;49.734;8.490;2023-03-01T09:38:46;99793.34;;;7.15;43.03
45467;BME280;31212;49.734;8.490;2023-03-01T09:41:26;99863.72;;;8.30;42.83
45467;BME280;31212;49.734;8.490;2023-03-01T09:44:00;99813.66;;;8.04;42.00
45467;BME280;31212;49.734;8.490;2023-03-01T09:46:36;99774.91;;;8.11;41.94
45467;BME280;31212;49.734;8.490;2023-03-01T09:49:07;99813.75;;;8.32;42.17
45467;BME280;31212;49.734;8.490;2023-03-01T09:51:36;99814.66;;;8.51;42.02
45467;BME280;31212;49.734;8.490;2023-03-01T09:54:04;99790.56;;;8.91;41.12
45467;BME280;31212;49.734;8.490;2023-03-01T09:56:37;99794.59;;;10.08;39.98
45467;BME280;31212;49.734;8.490;2023-03-01T09:59:14;99782.63;;;9.81;40.03
45467;BME280;31212;49.734;8.490;2023-03-01T10:01:51;99700.66;;;9.47;39.30
45467;BME280;31212;49.734;8.490;2023-03-01T10:04:28;99717.19;;;9.07;40.04
45467;BME280;31212;49.734;8.490;2023-03-01T10:07:13;99741.00;;;10.08;39.36
45467;BME280;31212;49.734;8.490;2023-03-01T10:09:45;99722.34;;;9.28;39.92
45467;BME280;31212;49.734;8.490;2023-03-01T10:12:15;99725.81;;;9.23;40.27
45467;BME280;31212;49.734;8.490;2023-03-01T10:14:48;99691.88;;;9.82;38.93
45467;BME280;31212;49.734;8.490;2023-03-01T10:17:26;99655.88;;;9.25;39.46
45467;BME280;31212;49.734;8.490;2023-03-01T10:19:55;99735.81;;;10.05;39.48
45467;BME280;31212;49.734;8.490;2023-03-01T10:22:26;99637.88;;;8.40;40.66
45467;BME280;31212;49.734;8.490;2023-03-01T10:24:56;99705.13;;;9.02;40.34
45467;BME280;31212;49.734;8.490;2023-03-01T10:27:25;99703.41;;;8.40;41.10
45467;BME280;31212;49.734;8.490;2023-03-01T10:29:56;99776.59;;;9.74;40.30
45467;BME280;31212;49.734;8.490;2023-03-01T10:32:28;99733.03;;;10.42;38.77
45467;BME280;31212;49.734;8.490;2023-03-01T10:34:55;99626.28;;;9.69;38.76
45467;BME280;31212;49.734;8.490;2023-03-01T10:37:22;99661.78;;;9.53;39.65
45467;BME280;31212;49.734;8.490;2023-03-01T10:39:56;99624.25;;;10.13;38.52
45467;BME280;31212;49.734;8.490;2023-03-01T10:42:26;99733.63;;;10.75;38.93
45467;BME280;31212;49.734;8.490;2023-03-01T10:44:54;99604.69;;;11.49;36.74
45467;BME280;31212;49.734;8.490;2023-03-01T10:47:22;99580.91;;;11.77;36.34
45467;BME280;31212;49.734;8.490;2023-03-01T10:49:54;99643.63;;;13.13;35.40
45467;BME280;31212;49.734;8.490;2023-03-01T10:52:22;99428.41;;;11.71;35.14
45467;BME280;31212;49.734;8.490;2023-03-01T10:54:54;99544.19;;;12.47;35.70
45467;BME280;31212;49.734;8.490;2023-03-01T10:57:28;99549.31;;;12.52;35.59
45467;BME280;31212;49.734;8.490;2023-03-01T11:00:05;99496.06;;;13.48;34.05
45467;BME280;31212;49.734;8.490;2023-03-01T11:02:40;99372.09;;;13.36;32.97
45467;BME280;31212;49.734;8.490;2023-03-01T11:05:18;99365.34;;;11.61;34.85
45467;BME280;31212;49.734;8.490;2023-03-01T11:07:47;99452.75;;;13.42;33.78
45467;BME280;31212;49.734;8.490;2023-03-01T11:10:18;99431.63;;;13.53;33.47
45467;BME280;31212;49.734;8.490;2023-03-01T11:12:44;99324.16;;;13.42;32.87
45467;BME280;31212;49.734;8.490;2023-03-01T11:15:21;99253.63;;;13.46;32.12
45467;BME280;31212;49.734;8.490;2023-03-01T11:17:49;99271.06;;;11.99;33.84
45467;BME280;31212;49.734;8.490;2023-03-01T11:20:25;99355.56;;;11.26;35.37
45467;BME280;31212;49.734;8.490;2023-03-01T11:22:54;99457.09;;;11.12;35.95
45467;BME280;31212;49.734;8.490;2023-03-01T11:25:25;99295.50;;;10.31;35.65
45467;BME280;31212;49.734;8.490;2023-03-01T11:27:53;99424.88;;;10.62;36.58
45467;BME280;31212;49.734;8.490;2023-03-01T11:30:23;99331.72;;;9.68;37.03
45467;BME280;31212;49.734;8.490;2023-03-01T11:33:01;99434.09;;;9.10;38.20
45467;BME280;31212;49.734;8.490;2023-03-01T11:35:32;99553.38;;;10.13;38.09
45467;BME280;31212;49.734;8.490;2023-03-01T11:38:09;99510.66;;;9.54;38.66
45467;BME280;31212;49.734;8.490;2023-03-01T11:40:44;99496.22;;;9.18;38.56
45467;BME280;31212;49.734;8.490;2023-03-01T11:43:18;99568.41;;;9.72;38.86
45467;BME280;31212;49.734;8.490;2023-03-01T11:45:56;99578.00;;;9.51;38.77
45467;BME280;31212;49.734;8.490;2023-03-01T11:48:36;99534.97;;;9.30;38.62
45467;BME280;31212;49.734;8.490;2023-03-01T11:51:11;99626.31;;;9.65;38.94
45467;BME280;31212;49.734;8.490;2023-03-01T11:53:51;99669.13;;;10.26;38.82
45467;BME280;31212;49.734;8.490;2023-03-01T11:56:27;99584.81;;;9.71;38.52
45467;BME280;31212;49.734;8.490;2023-03-01T11:59:08;99540.03;;;9.47;38.96
45467;BME280;31212;49.734;8.490;2023-03-01T12:01:47;99514.41;;;8.99;39.10
45467;BME280;31212;49.734;8.490;2023-03-01T12:07:08;99530.66;;;9.28;38.69
45467;BME280;31212;49.734;8.490;2023-03-01T12:09:49;99549.03;;;8.69;39.88
45467;BME280;31212;49.734;8.490;2023-03-01T12:12:30;99603.31;;;8.89;40.11
45467;BME280;31212;49.734;8.490;2023-03-01T12:15:24;99574.66;;;9.35;39.12
45467;BME280;31212;49.734;8.490;2023-03-01T12:18:20;99541.66;;;9.65;38.63
45467;BME280;31212;49.734;8.490;2023-03-01T12:20:59;99472.00;;;9.19;38.61
45467;BME280;31212;49.734;8.490;2023-03-01T12:23:44;99521.81;;;9.58;38.35
45467;BME280;31212;49.734;8.490;2023-03-01T12:26:20;99532.72;;;9.99;38.18
45467;BME280;31212;49.734;8.490;2023-03-01T12:28:59;99489.13;;;9.46;38.63
45467;BME280;31212;49.734;8.490;2023-03-01T12:31:45;99502.81;;;9.60;38.55
45467;BME280;31212;49.734;8.490;2023-03-01T12:34:30;99504.50;;;9.63;38.71
45467;BME280;31212;49.734;8.490;2023-03-01T12:37:12;99535.19;;;10.16;38.59
45467;BME280;31212;49.734;8.490;2023-03-01T12:39:54;99437.09;;;9.71;37.93
45467;BME280;31212;49.734;8.490;2023-03-01T12:42:30;99402.75;;;9.44;37.76
45467;BME280;31212;49.734;8.490;2023-03-01T12:45:21;99473.91;;;10.05;37.74
45467;BME280;31212;49.734;8.490;2023-03-01T12:48:01;99485.19;;;10.00;38.02
45467;BME280;31212;49.734;8.490;2023-03-01T12:50:38;99412.00;;;9.73;38.11
45467;BME280;31212;49.734;8.490;2023-03-01T12:53:19;99416.28;;;9.77;38.00
45467;BME280;31212;49.734;8.490;2023-03-01T12:55:50;99357.91;;;9.39;37.65
45467;BME280;31212;49.734;8.490;2023-03-01T12:58:24;99385.50;;;9.46;37.89
45467;BME280;31212;49.734;8.490;2023-03-01T13:01:01;99414.72;;;9.59;37.81
45467;BME280;31212;49.734;8.490;2023-03-01T13:03:32;99319.31;;;9.11;37.95
45467;BME280;31212;49.734;8.490;2023-03-01T13:06:07;99367.56;;;9.18;37.93
45467;BME280;31212;49.734;8.490;2023-03-01T13:08:40;99322.88;;;8.93;37.99
45467;BME280;31212;49.734;8.490;2023-03-01T13:11:16;99367.63;;;9.11;37.91
45467;BME280;31212;49.734;8.490;2023-03-01T13:13:44;99349.34;;;9.31;38.02
45467;BME280;31212;49.734;8.490;2023-03-01T13:16:38;99361.13;;;9.64;37.88